Time;durP1;ratioP1;P1;durP2;ratioP2;P2;SDS_P1;SDS_P2;PMS_P1;PMS_P2;Temp;Humidity;BMP_temperature;BMP_pressure;BME280_temperature;BME280_humidity;BME280_pressure;Samples;Min_cycle;Max_cycle;Signal;HPM_P1;HPM_P2
2022/09/30 00:01:48;;;;;;;;;;;;;;;;;;2216250;58;1200;-74
2022/09/30 00:04:25;;;;;;;;;;;;;;;;;;2217835;66;1302;-74
2022/09/30 00:06:58;;;;;;;;;;;;;;;;;;2217471;58;1943;-74
2022/09/30 00:09:32;;;;;;;;;;;;;;;;;;2217895;67;1151;-74
2022/09/30 00:12:05;;;;;;;;;;;;;;;;;;2218022;58;3005;-74
2022/09/30 00:14:38;;;;;;;;;;;;;;;;;;2217931;58;2178;-74
2022/09/30 00:17:11;;;;;;;;;;;;;;;;;;2217853;59;2367;-74
2022/09/30 00:19:47;;;;;;;;;;;;;;;;;;2217343;58;1211;-74
2022/09/30 00:22:20;;;;;;;;;;;;;;;;;;2217529;59;1291;-74
2022/09/30 00:24:54;;;;;;;;;;;;;;;;;;2216903;67;1199;-74
2022/09/30 00:27:27;;;;;;;;;;;;;;;;;;2217038;66;1982;-74
2022/09/30 00:30:00;;;;;;;;;;;;;;;;;;2217648;66;1348;-74
2022/09/30 00:32:33;;;;;;;;;;;;;;;;;;2218114;58;2200;-74
2022/09/30 00:35:09;;;;;;;;;;;;;;;;;;2217553;59;1832;-74
2022/09/30 00:37:43;;;;;;;;;;;;;;;;;;2217628;59;2275;-74
2022/09/30 00:40:16;;;;;;;;;;;;;;;;;;2218738;59;2194;-74
2022/09/30 00:42:49;;;;;;;;;;;;;;;;;;2214108;59;1195;-74
2022/09/30 00:45:22;;;;;;;;;;;;;;;;;;2218587;66;1252;-74
2022/09/30 00:47:56;;;;;;;;;;;;;;;;;;2219473;58;2286;-74
2022/09/30 00:50:34;;;;;;;;;;;;;;;;;;2216532;58;1736;-74
2022/09/30 00:53:14;;;;;;;;;;;;;;;;;;2217962;66;1180;-74
2022/09/30 00:55:50;;;;;;;;;;;;;;;;;;2217815;59;1847;-74
2022/09/30 00:58:26;;;;;;;;;;;;;;;;;;2218648;58;1223;-75
2022/09/30 01:01:00;;;;;;;;;;;;;;;;;;2218484;58;2737;-75
2022/09/30 01:03:35;;;;;;;;;;;;;;;;;;2217918;66;1160;-75
2022/09/30 01:06:11;;;;;;;;;;;;;;;;;;2219300;58;2200;-74
2022/09/30 01:08:45;;;;;;;;;;;;;;;;;;2218494;58;2643;-74
2022/09/30 01:11:19;;;;;;;;;;;;;;;;;;2218298;58;1146;-74
2022/09/30 01:13:54;;;;;;;;;;;;;;;;;;2214253;59;1842;-75
2022/09/30 01:16:52;;;;;;;;;;;;;;;;;;2217746;59;1247;-74
2022/09/30 01:19:34;;;;;;;;;;;;;;;;;;2217683;58;2388;-74
2022/09/30 01:22:21;;;;;;;;;;;;;;;;;;2217013;58;1256;-74
2022/09/30 01:25:15;;;;;;;;;;;;;;;;;;2217608;59;1291;-75
2022/09/30 01:28:13;;;;;;;;;;;;;;;;;;2212938;66;1921;-75
2022/09/30 01:30:59;;;;;;;;;;;;;;;;;;2218036;66;1092;-74
2022/09/30 01:33:38;;;;;;;;;;;;;;;;;;2214596;59;2271;-74
2022/09/30 01:36:22;;;;;;;;;;;;;;;;;;2218257;58;2129;-74
2022/09/30 01:39:00;;;;;;;;;;;;;;;;;;2219365;58;2723;-74
2022/09/30 01:41:41;;;;;;;;;;;;;;;;;;2219122;58;2675;-74
2022/09/30 01:44:17;;;;;;;;;;;;;;;;;;2219248;58;2820;-75
2022/09/30 01:46:57;;;;;;;;;;;;;;;;;;2219280;58;2905;-75
2022/09/30 01:49:35;;;;;;;;;;;;;;;;;;2218185;58;2172;-74
2022/09/30 01:52:12;;;;;;;;;;;;;;;;;;2217829;58;1479;-74
2022/09/30 01:54:48;;;;;;;;;;;;;;;;;;2217355;59;1861;-75
2022/09/30 01:57:24;;;;;;;;;;;;;;;;;;2217816;59;1114;-75
2022/09/30 02:00:01;;;;;;;;;;;;;;;;;;2217235;67;1108;-74
2022/09/30 02:02:41;;;;;;;;;;;;;;;;;;2217688;66;1067;-74
2022/09/30 02:05:16;;;;;;;;;;;;;;;;;;2217855;59;1304;-74
2022/09/30 02:07:52;;;;;;;;;;;;;;;;;;2218976;58;2223;-74
2022/09/30 02:10:27;;;;;;;;;;;;;;;;;;2217798;58;2199;-74
2022/09/30 02:13:04;;;;;;;;;;;;;;;;;;2219316;58;2157;-74
2022/09/30 02:15:38;;;;;;;;;;;;;;;;;;2222762;53;3750;-74
2022/09/30 02:18:18;;;;;;;;;;;;;;;;;;2222890;58;1185;-74
2022/09/30 02:20:54;;;;;;;;;;;;;;;;;;2223269;59;1250;-74
2022/09/30 02:23:29;;;;;;;;;;;;;;;;;;2223049;58;1161;-74
2022/09/30 02:26:06;;;;;;;;;;;;;;;;;;2221277;66;1216;-74
2022/09/30 02:28:42;;;;;;;;;;;;;;;;;;2221968;66;1939;-75
2022/09/30 02:31:17;;;;;;;;;;;;;;;;;;2221583;58;1171;-75
2022/09/30 02:33:56;;;;;;;;;;;;;;;;;;2221907;66;1196;-75
2022/09/30 02:36:31;;;;;;;;;;;;;;;;;;2221022;58;1618;-74
2022/09/30 02:39:07;;;;;;;;;;;;;;;;;;2217864;66;1312;-75
2022/09/30 02:41:43;;;;;;;;;;;;;;;;;;2221933;66;1290;-74
2022/09/30 02:44:18;;;;;;;;;;;;;;;;;;2222096;66;1309;-75
2022/09/30 02:46:56;;;;;;;;;;;;;;;;;;2221562;66;1050;-74
2022/09/30 02:49:35;;;;;;;;;;;;;;;;;;2221150;58;1939;-75
2022/09/30 02:52:14;;;;;;;;;;;;;;;;;;2221375;58;1246;-76
2022/09/30 02:54:52;;;;;;;;;;;;;;;;;;2220872;58;1860;-75
2022/09/30 02:57:30;;;;;;;;;;;;;;;;;;2220554;66;1124;-75
2022/09/30 03:00:03;;;;;;;;;;;;;;;;;;2219598;66;1343;-80
2022/09/30 03:02:37;;;;;;;;;;;;;;;;;;2217308;66;1238;-75
2022/09/30 03:05:13;;;;;;;;;;;;;;;;;;2220271;58;1683;-74
2022/09/30 03:07:46;;;;;;;;;;;;;;;;;;2219831;66;1994;-74
2022/09/30 03:10:20;;;;;;;;;;;;;;;;;;2218559;66;1235;-74
2022/09/30 03:13:03;;;;;;;;;;;;;;;;;;2221323;66;1247;-78
2022/09/30 03:15:42;;;;;;;;;;;;;;;;;;2217457;58;1758;-75
2022/09/30 03:18:30;;;;;;;;;;;;;;;;;;2220734;66;1242;-74
2022/09/30 03:21:19;;;;;;;;;;;;;;;;;;2220053;58;2180;-75
2022/09/30 03:24:02;;;;;;;;;;;;;;;;;;2217558;58;2753;-76
2022/09/30 03:26:39;;;;;;;;;;;;;;;;;;2220808;58;1334;-74
2022/09/30 03:29:18;;;;;;;;;;;;;;;;;;2217512;58;2257;-75
2022/09/30 03:31:57;;;;;;;;;;;;;;;;;;2218196;58;1313;-74
2022/09/30 03:34:32;;;;;;;;;;;;;;;;;;2221573;58;1698;-75
2022/09/30 03:37:13;;;;;;;;;;;;;;;;;;2221563;58;2020;-74
2022/09/30 03:39:55;;;;;;;;;;;;;;;;;;2221420;58;1209;-74
2022/09/30 03:42:31;;;;;;;;;;;;;;;;;;2218600;58;1442;-74
2022/09/30 03:45:07;;;;;;;;;;;;;;;;;;2217590;58;1233;-74
2022/09/30 03:47:44;;;;;;;;;;;;;;;;;;2221268;66;1152;-74
2022/09/30 03:50:20;;;;;;;;;;;;;;;;;;2220526;58;1947;-73
2022/09/30 03:52:56;;;;;;;;;;;;;;;;;;2221866;66;1140;-74
2022/09/30 03:55:30;;;;;;;;;;;;;;;;;;2221163;58;1687;-74
2022/09/30 03:58:03;;;;;;;;;;;;;;;;;;2222334;58;2287;-74
2022/09/30 04:00:36;;;;;;;;;;;;;;;;;;2221388;58;2143;-74
2022/09/30 04:03:10;;;;;;;;;;;;;;;;;;2221287;58;1157;-75
2022/09/30 04:05:43;;;;;;;;;;;;;;;;;;2221188;58;2511;-75
2022/09/30 04:08:19;;;;;;;;;;;;;;;;;;2221467;58;1929;-74
2022/09/30 04:10:52;;;;;;;;;;;;;;;;;;2220351;58;1839;-74
2022/09/30 04:13:25;;;;;;;;;;;;;;;;;;2217471;66;1881;-74
2022/09/30 04:15:58;;;;;;;;;;;;;;;;;;2221501;58;1627;-74
2022/09/30 04:18:32;;;;;;;;;;;;;;;;;;2217576;66;1247;-74
2022/09/30 04:21:06;;;;;;;;;;;;;;;;;;2220604;66;1232;-74
2022/09/30 04:23:43;;;;;;;;;;;;;;;;;;2220740;58;1183;-74
2022/09/30 04:26:18;;;;;;;;;;;;;;;;;;2217362;66;1281;-74
2022/09/30 04:28:52;;;;;;;;;;;;;;;;;;2220364;66;2002;-74
2022/09/30 04:31:25;;;;;;;;;;;;;;;;;;2221110;58;2431;-74
2022/09/30 04:33:58;;;;;;;;;;;;;;;;;;2221233;58;1207;-74
2022/09/30 04:36:31;;;;;;;;;;;;;;;;;;2217724;58;1512;-74
2022/09/30 04:39:07;;;;;;;;;;;;;;;;;;2216766;66;1643;-74
2022/09/30 04:41:41;;;;;;;;;;;;;;;;;;2218074;66;1282;-74
2022/09/30 04:44:15;;;;;;;;;;;;;;;;;;2217186;66;1756;-74
2022/09/30 04:46:49;;;;;;;;;;;;;;;;;;2220147;66;1185;-74
2022/09/30 04:49:23;;;;;;;;;;;;;;;;;;2216950;59;1935;-73
2022/09/30 04:51:56;;;;;;;;;;;;;;;;;;2217441;58;2401;-76
2022/09/30 04:54:33;;;;;;;;;;;;;;;;;;2218531;58;1594;-74
2022/09/30 04:57:07;;;;;;;;;;;;;;;;;;2218024;59;2046;-74
2022/09/30 04:59:40;;;;;;;;;;;;;;;;;;2221216;59;1240;-74
2022/09/30 05:02:14;;;;;;;;;;;;;;;;;;2218324;66;1275;-74
2022/09/30 05:04:48;;;;;;;;;;;;;;;;;;2217316;66;1310;-74
2022/09/30 05:07:21;;;;;;;;;;;;;;;;;;2220541;59;1199;-74
2022/09/30 05:09:57;;;;;;;;;;;;;;;;;;2220951;66;1931;-74
2022/09/30 05:12:30;;;;;;;;;;;;;;;;;;2221025;60;1151;-74
2022/09/30 05:15:04;;;;;;;;;;;;;;;;;;2217068;58;1695;-74
2022/09/30 05:17:37;;;;;;;;;;;;;;;;;;2218850;66;1224;-74
2022/09/30 05:20:11;;;;;;;;;;;;;;;;;;2219454;66;1243;-73
2022/09/30 05:22:44;;;;;;;;;;;;;;;;;;2220100;66;1128;-74
2022/09/30 05:25:20;;;;;;;;;;;;;;;;;;2220801;58;1237;-74
2022/09/30 05:27:53;;;;;;;;;;;;;;;;;;2220336;66;1312;-74
2022/09/30 05:30:26;;;;;;;;;;;;;;;;;;2220067;66;1936;-74
2022/09/30 05:32:59;;;;;;;;;;;;;;;;;;2220857;66;1143;-74
2022/09/30 05:35:33;;;;;;;;;;;;;;;;;;2219729;58;1737;-74
2022/09/30 05:38:06;;;;;;;;;;;;;;;;;;2221079;66;1316;-74
2022/09/30 05:40:42;;;;;;;;;;;;;;;;;;2219824;66;1242;-75
2022/09/30 05:43:15;;;;;;;;;;;;;;;;;;2221395;58;2193;-74
2022/09/30 05:45:53;;;;;;;;;;;;;;;;;;2220908;58;1195;-74
2022/09/30 05:48:27;;;;;;;;;;;;;;;;;;2220316;59;1220;-74
2022/09/30 05:51:01;;;;;;;;;;;;;;;;;;2219851;66;1196;-73
2022/09/30 05:53:36;;;;;;;;;;;;;;;;;;2220810;66;1289;-74
2022/09/30 05:56:12;;;;;;;;;;;;;;;;;;2217926;58;1692;-74
2022/09/30 05:58:46;;;;;;;;;;;;;;;;;;2221443;66;1148;-74
2022/09/30 06:01:19;;;;;;;;;;;;;;;;;;2216608;59;1298;-73
2022/09/30 06:03:52;;;;;;;;;;;;;;;;;;2219685;66;1175;-73
2022/09/30 06:06:25;;;;;;;;;;;;;;;;;;2219940;66;1148;-74
2022/09/30 06:08:58;;;;;;;;;;;;;;;;;;2220468;58;2314;-73
2022/09/30 06:11:34;;;;;;;;;;;;;;;;;;2221460;58;1201;-73
2022/09/30 06:14:07;;;;;;;;;;;;;;;;;;2221068;58;2084;-74
2022/09/30 06:16:41;;;;;;;;;;;;;;;;;;2217130;59;1261;-76
2022/09/30 06:19:14;;;;;;;;;;;;;;;;;;2217043;58;1293;-73
2022/09/30 06:21:47;;;;;;;;;;;;;;;;;;2219956;66;1252;-74
2022/09/30 06:24:20;;;;;;;;;;;;;;;;;;2220030;58;1365;-75
2022/09/30 06:26:56;;;;;;;;;;;;;;;;;;2219154;58;2188;-75
2022/09/30 06:29:29;;;;;;;;;;;;;;;;;;2217181;58;2322;-74
2022/09/30 06:32:03;;;;;;;;;;;;;;;;;;2220568;58;2178;-74
2022/09/30 06:34:36;;;;;;;;;;;;;;;;;;2218976;58;2046;-74
2022/09/30 06:37:10;;;;;;;;;;;;;;;;;;2219794;58;2614;-74
2022/09/30 06:39:43;;;;;;;;;;;;;;;;;;2220321;58;1783;-74
2022/09/30 06:42:22;;;;;;;;;;;;;;;;;;2220240;58;2165;-74
2022/09/30 06:44:56;;;;;;;;;;;;;;;;;;2220342;58;1544;-74
2022/09/30 06:47:32;;;;;;;;;;;;;;;;;;2217450;58;1396;-74
2022/09/30 06:50:05;;;;;;;;;;;;;;;;;;2219810;66;1935;-74
2022/09/30 06:52:38;;;;;;;;;;;;;;;;;;2216868;58;2241;-74
2022/09/30 06:55:11;;;;;;;;;;;;;;;;;;2220143;58;2182;-74
2022/09/30 06:57:47;;;;;;;;;;;;;;;;;;2221014;58;1202;-74
2022/09/30 07:00:21;;;;;;;;;;;;;;;;;;2220089;58;1836;-74
2022/09/30 07:02:55;;;;;;;;;;;;;;;;;;2220370;58;1714;-75
2022/09/30 07:05:28;;;;;;;;;;;;;;;;;;2217761;58;2781;-75
2022/09/30 07:08:02;;;;;;;;;;;;;;;;;;2216762;58;2459;-76
2022/09/30 07:10:35;;;;;;;;;;;;;;;;;;2220754;58;2099;-74
2022/09/30 07:13:13;;;;;;;;;;;;;;;;;;2219196;59;1187;-74
2022/09/30 07:15:46;;;;;;;;;;;;;;;;;;2218460;58;2252;-74
2022/09/30 07:18:19;;;;;;;;;;;;;;;;;;2219957;58;2468;-74
2022/09/30 07:20:53;;;;;;;;;;;;;;;;;;2220348;58;1132;-74
2022/09/30 07:23:27;;;;;;;;;;;;;;;;;;2220662;58;1573;-74
2022/09/30 07:26:03;;;;;;;;;;;;;;;;;;2221192;58;2250;-74
2022/09/30 07:28:39;;;;;;;;;;;;;;;;;;2220447;66;1270;-74
2022/09/30 07:31:14;;;;;;;;;;;;;;;;;;2219841;58;1984;-74
2022/09/30 07:33:49;;;;;;;;;;;;;;;;;;2219883;58;1266;-74
2022/09/30 07:36:26;;;;;;;;;;;;;;;;;;2218264;58;2333;-75
2022/09/30 07:39:04;;;;;;;;;;;;;;;;;;2220547;59;1147;-74
2022/09/30 07:41:39;;;;;;;;;;;;;;;;;;2216084;58;1753;-74
2022/09/30 07:44:16;;;;;;;;;;;;;;;;;;2216611;58;2271;-74
2022/09/30 07:46:49;;;;;;;;;;;;;;;;;;2220402;58;1194;-74
2022/09/30 07:49:26;;;;;;;;;;;;;;;;;;2220002;58;1947;-74
2022/09/30 07:52:00;;;;;;;;;;;;;;;;;;2218341;58;2405;-74
2022/09/30 07:54:34;;;;;;;;;;;;;;;;;;2217825;58;2651;-74
2022/09/30 07:57:08;;;;;;;;;;;;;;;;;;2221001;58;2214;-74
2022/09/30 07:59:44;;;;;;;;;;;;;;;;;;2220307;58;2209;-74
2022/09/30 08:02:18;;;;;;;;;;;;;;;;;;2220342;58;2136;-74
2022/09/30 08:04:51;;;;;;;;;;;;;;;;;;2220401;59;1251;-74
2022/09/30 08:07:24;;;;;;;;;;;;;;;;;;2216616;58;2633;-74
2022/09/30 08:09:57;;;;;;;;;;;;;;;;;;2220095;58;2128;-75
2022/09/30 08:12:30;;;;;;;;;;;;;;;;;;2217335;58;2130;-74
2022/09/30 08:15:08;;;;;;;;;;;;;;;;;;2222019;58;3856;-70
2022/09/30 08:17:41;;;;;;;;;;;;;;;;;;2219769;58;2533;-70
2022/09/30 08:20:15;;;;;;;;;;;;;;;;;;2217980;58;2715;-70
2022/09/30 08:22:48;;;;;;;;;;;;;;;;;;2218559;58;2166;-70
2022/09/30 08:25:21;;;;;;;;;;;;;;;;;;2220082;58;2577;-70
2022/09/30 08:27:54;;;;;;;;;;;;;;;;;;2222756;58;2574;-70
2022/09/30 08:30:30;;;;;;;;;;;;;;;;;;2220411;58;2545;-70
2022/09/30 08:33:04;;;;;;;;;;;;;;;;;;2220737;58;2170;-70
2022/09/30 08:35:37;;;;;;;;;;;;;;;;;;2219296;58;2409;-70
2022/09/30 08:38:10;;;;;;;;;;;;;;;;;;2219659;58;2401;-70
2022/09/30 08:40:50;;;;;;;;;;;;;;;;;;2221213;58;2178;-70
2022/09/30 08:43:29;;;;;;;;;;;;;;;;;;2220858;58;2132;-70
2022/09/30 08:46:08;;;;;;;;;;;;;;;;;;2223100;58;2302;-70
2022/09/30 08:48:47;;;;;;;;;;;;;;;;;;2221880;58;2106;-70
2022/09/30 08:51:29;;;;;;;;;;;;;;;;;;2221586;58;2369;-70
2022/09/30 08:54:04;;;;;;;;;;;;;;;;;;2218766;58;2245;-70
2022/09/30 08:56:38;;;;;;;;;;;;;;;;;;2222405;58;2443;-70
2022/09/30 08:59:18;;;;;;;;;;;;;;;;;;2221926;58;2386;-70
2022/09/30 09:01:56;;;;;;;;;;;;;;;;;;2222014;58;2596;-70
2022/09/30 09:04:30;;;;;;;;;;;;;;;;;;2218194;58;2517;-70
2022/09/30 09:07:10;;;;;;;;;;;;;;;;;;2219887;58;2404;-70
2022/09/30 09:09:49;;;;;;;;;;;;;;;;;;2221048;58;2278;-70
2022/09/30 09:12:29;;;;;;;;;;;;;;;;;;2221783;58;2205;-70
2022/09/30 09:15:12;;;;;;;;;;;;;;;;;;2219223;58;2185;-70
2022/09/30 09:17:56;;;;;;;;;;;;;;;;;;2219430;58;2703;-70
2022/09/30 09:20:33;;;;;;;;;;;;;;;;;;2219960;58;2412;-70
2022/09/30 09:23:10;;;;;;;;;;;;;;;;;;2219594;58;2910;-70
2022/09/30 09:25:45;;;;;;;;;;;;;;;;;;2220598;58;2405;-70
2022/09/30 09:28:24;;;;;;;;;;;;;;;;;;2220182;58;2396;-70
2022/09/30 09:31:00;;;;;;;;;;;;;;;;;;2219796;58;1987;-70
2022/09/30 09:33:38;;;;;;;;;;;;;;;;;;2215746;58;2433;-70
2022/09/30 09:36:18;;;;;;;;;;;;;;;;;;2215782;58;2371;-70
2022/09/30 09:39:11;;;;;;;;;;;;;;;;;;2219048;58;2432;-70
2022/09/30 09:41:50;;;;;;;;;;;;;;;;;;2219216;58;2376;-70
2022/09/30 09:44:27;;;;;;;;;;;;;;;;;;2219985;58;2155;-70
2022/09/30 09:47:04;;;;;;;;;;;;;;;;;;2221950;58;2279;-70
2022/09/30 09:49:41;;;;;;;;;;;;;;;;;;2220152;58;2700;-70
2022/09/30 09:52:35;;;;;;;;;;;;;;;;;;2220950;58;2156;-70
2022/09/30 09:55:09;;;;;;;;;;;;;;;;;;2218629;58;2387;-70
2022/09/30 09:57:42;;;;;;;;;;;;;;;;;;2221263;58;2196;-70
2022/09/30 10:03:17;;;;;;;;;;;;;;;;;;2222814;58;1379;-70
2022/09/30 10:06:03;;;;;;;;;;;;;;;;;;2223583;58;2555;-70
2022/09/30 10:08:38;;;;;;;;;;;;;;;;;;2220361;58;2140;-70
2022/09/30 10:11:19;;;;;;;;;;;;;;;;;;2219610;58;2493;-70
2022/09/30 10:13:54;;;;;;;;;;;;;;;;;;2222623;58;2311;-70
2022/09/30 10:16:29;;;;;;;;;;;;;;;;;;2220677;58;2773;-70
2022/09/30 10:19:03;;;;;;;;;;;;;;;;;;2219806;58;2539;-70
2022/09/30 10:21:39;;;;;;;;;;;;;;;;;;2220921;58;2584;-70
2022/09/30 10:24:20;;;;;;;;;;;;;;;;;;2220825;58;2262;-71
2022/09/30 10:26:53;;;;;;;;;;;;;;;;;;2218344;58;1707;-71
2022/09/30 10:29:28;;;;;;;;;;;;;;;;;;2219035;58;2116;-70
2022/09/30 10:32:02;;;;;;;;;;;;;;;;;;2220020;58;2438;-70
2022/09/30 10:34:36;;;;;;;;;;;;;;;;;;2221352;58;2876;-71
2022/09/30 10:37:16;;;;;;;;;;;;;;;;;;2220037;58;2341;-71
2022/09/30 10:39:54;;;;;;;;;;;;;;;;;;2219182;58;2439;-70
2022/09/30 10:42:29;;;;;;;;;;;;;;;;;;2219066;58;2180;-71
2022/09/30 10:45:05;;;;;;;;;;;;;;;;;;2220169;58;2237;-71
2022/09/30 10:47:45;;;;;;;;;;;;;;;;;;2219017;58;2237;-70
2022/09/30 10:50:21;;;;;;;;;;;;;;;;;;2220543;58;2251;-70
2022/09/30 10:52:58;;;;;;;;;;;;;;;;;;2216236;58;2393;-70
2022/09/30 10:55:33;;;;;;;;;;;;;;;;;;2219017;58;2383;-71
2022/09/30 10:58:21;;;;;;;;;;;;;;;;;;2219184;58;1490;-70
2022/09/30 11:00:58;;;;;;;;;;;;;;;;;;2220489;58;2550;-71
2022/09/30 11:03:36;;;;;;;;;;;;;;;;;;2220569;58;2156;-71
2022/09/30 11:06:13;;;;;;;;;;;;;;;;;;2219906;58;2334;-70
2022/09/30 11:08:52;;;;;;;;;;;;;;;;;;2218344;58;1129;-71
2022/09/30 11:11:28;;;;;;;;;;;;;;;;;;2222564;58;2263;-71
2022/09/30 11:14:03;;;;;;;;;;;;;;;;;;2220708;58;2442;-70
2022/09/30 11:16:42;;;;;;;;;;;;;;;;;;2218821;58;2229;-71
2022/09/30 11:19:21;;;;;;;;;;;;;;;;;;2220739;58;2496;-71
2022/09/30 11:21:55;;;;;;;;;;;;;;;;;;2219187;58;2370;-71
2022/09/30 11:24:36;;;;;;;;;;;;;;;;;;2219180;58;2566;-70
2022/09/30 11:27:12;;;;;;;;;;;;;;;;;;2220261;58;2265;-71
2022/09/30 11:30:00;;;;;;;;;;;;;;;;;;2215812;58;2340;-71
2022/09/30 11:32:40;;;;;;;;;;;;;;;;;;2219077;58;2448;-71
2022/09/30 11:35:25;;;;;;;;;;;;;;;;;;2219243;58;2462;-70
2022/09/30 11:38:16;;;;;;;;;;;;;;;;;;2219185;58;2234;-71
2022/09/30 11:40:57;;;;;;;;;;;;;;;;;;2218892;58;2890;-71
2022/09/30 11:43:39;;;;;;;;;;;;;;;;;;2218355;58;2264;-70
2022/09/30 11:46:29;;;;;;;;;;;;;;;;;;2220227;58;2514;-71
2022/09/30 11:49:10;;;;;;;;;;;;;;;;;;2218157;58;2438;-71
2022/09/30 11:51:48;;;;;;;;;;;;;;;;;;2218780;58;2408;-71
2022/09/30 11:54:27;;;;;;;;;;;;;;;;;;2219059;58;2231;-71
2022/09/30 11:57:07;;;;;;;;;;;;;;;;;;2219292;58;2397;-71
2022/09/30 11:59:44;;;;;;;;;;;;;;;;;;2220098;58;2343;-71
2022/09/30 12:02:25;;;;;;;;;;;;;;;;;;2220135;58;2200;-71
2022/09/30 12:05:02;;;;;;;;;;;;;;;;;;2219874;58;2291;-71
2022/09/30 12:07:40;;;;;;;;;;;;;;;;;;2219565;58;2112;-71
2022/09/30 12:10:20;;;;;;;;;;;;;;;;;;2220104;58;2402;-71
2022/09/30 12:12:58;;;;;;;;;;;;;;;;;;2220567;58;2376;-71
2022/09/30 12:15:32;;;;;;;;;;;;;;;;;;2220801;58;2394;-71
2022/09/30 12:18:08;;;;;;;;;;;;;;;;;;2220046;58;2211;-71
2022/09/30 12:20:43;;;;;;;;;;;;;;;;;;2219100;58;2335;-71
2022/09/30 12:23:20;;;;;;;;;;;;;;;;;;2219813;58;2769;-71
2022/09/30 12:25:56;;;;;;;;;;;;;;;;;;2218473;58;2200;-71
2022/09/30 12:31:39;;;;;;;;;;;;;;;;;;2219337;58;2580;-71
2022/09/30 12:34:23;;;;;;;;;;;;;;;;;;2216864;66;1261;-70
2022/09/30 12:37:02;;;;;;;;;;;;;;;;;;2216893;58;2429;-70
2022/09/30 12:39:44;;;;;;;;;;;;;;;;;;2214424;58;2408;-71
2022/09/30 12:42:28;;;;;;;;;;;;;;;;;;2221355;58;2627;-71
2022/09/30 12:45:11;;;;;;;;;;;;;;;;;;2219364;58;2577;-71
2022/09/30 12:47:48;;;;;;;;;;;;;;;;;;2219900;58;2355;-70
2022/09/30 12:50:24;;;;;;;;;;;;;;;;;;2217749;58;2121;-71
2022/09/30 12:52:58;;;;;;;;;;;;;;;;;;2220150;58;2460;-71
2022/09/30 12:55:33;;;;;;;;;;;;;;;;;;2219596;58;2344;-70
2022/09/30 12:58:09;;;;;;;;;;;;;;;;;;2220722;58;2356;-70
2022/09/30 13:01:00;;;;;;;;;;;;;;;;;;2219259;58;2284;-71
2022/09/30 13:03:45;;;;;;;;;;;;;;;;;;2219659;58;2193;-70
2022/09/30 13:06:19;;;;;;;;;;;;;;;;;;2218327;58;2520;-71
2022/09/30 13:09:17;;;;;;;;;;;;;;;;;;2218710;58;1621;-71
2022/09/30 13:11:50;;;;;;;;;;;;;;;;;;2209520;58;1935;-71
2022/09/30 13:14:26;;;;;;;;;;;;;;;;;;2217565;58;1822;-71
2022/09/30 13:17:24;;;;;;;;;;;;;;;;;;2218391;59;1463;-71
2022/09/30 13:19:57;;;;;;;;;;;;;;;;;;2215722;58;2757;-71
2022/09/30 13:22:54;;;;;;;;;;;;;;;;;;2216409;59;2285;-71
2022/09/30 13:25:27;;;;;;;;;;;;;;;;;;2218229;58;2163;-70
2022/09/30 13:28:19;;;;;;;;;;;;;;;;;;2218942;58;2137;-71
2022/09/30 13:31:12;;;;;;;;;;;;;;;;;;2218937;58;1585;-70
2022/09/30 13:34:05;;;;;;;;;;;;;;;;;;2218396;58;1583;-70
2022/09/30 13:36:42;;;;;;;;;;;;;;;;;;2218085;58;1595;-71
2022/09/30 13:39:20;;;;;;;;;;;;;;;;;;2218395;58;2646;-71
2022/09/30 13:42:14;;;;;;;;;;;;;;;;;;2220672;58;2139;-71
2022/09/30 13:45:01;;;;;;;;;;;;;;;;;;2216489;58;2266;-71
2022/09/30 13:47:39;;;;;;;;;;;;;;;;;;2217972;58;2707;-71
2022/09/30 13:50:19;;;;;;;;;;;;;;;;;;2218091;58;1710;-70
2022/09/30 13:52:54;;;;;;;;;;;;;;;;;;2219203;58;2298;-71
2022/09/30 13:55:30;;;;;;;;;;;;;;;;;;2219260;58;2347;-71
2022/09/30 13:58:09;;;;;;;;;;;;;;;;;;2220089;58;2238;-71
2022/09/30 14:00:49;;;;;;;;;;;;;;;;;;2219594;58;2118;-71
2022/09/30 14:03:39;;;;;;;;;;;;;;;;;;2219028;58;2478;-71
2022/09/30 14:06:25;;;;;;;;;;;;;;;;;;2219276;58;2359;-71
2022/09/30 14:09:09;;;;;;;;;;;;;;;;;;2218937;58;2300;-72
2022/09/30 14:11:51;;;;;;;;;;;;;;;;;;2217800;58;1987;-70
2022/09/30 14:14:30;;;;;;;;;;;;;;;;;;2218968;58;1728;-71
2022/09/30 14:17:11;;;;;;;;;;;;;;;;;;2220683;58;2357;-71
2022/09/30 14:19:59;;;;;;;;;;;;;;;;;;2219960;58;2304;-70
2022/09/30 14:22:37;;;;;;;;;;;;;;;;;;2218423;66;1566;-71
2022/09/30 14:25:15;;;;;;;;;;;;;;;;;;2221208;58;2499;-71
2022/09/30 14:27:59;;;;;;;;;;;;;;;;;;2219487;58;2207;-70
2022/09/30 14:30:38;;;;;;;;;;;;;;;;;;2218569;58;2391;-71
2022/09/30 14:33:12;;;;;;;;;;;;;;;;;;2219573;59;1923;-71
2022/09/30 14:35:47;;;;;;;;;;;;;;;;;;2218087;58;1839;-71
2022/09/30 14:38:27;;;;;;;;;;;;;;;;;;2218126;58;1651;-71
2022/09/30 14:41:05;;;;;;;;;;;;;;;;;;2218970;58;2604;-70
2022/09/30 14:43:39;;;;;;;;;;;;;;;;;;2215112;58;2155;-71
2022/09/30 14:46:18;;;;;;;;;;;;;;;;;;2214606;58;1680;-70
2022/09/30 14:48:52;;;;;;;;;;;;;;;;;;2218530;58;1088;-70
2022/09/30 14:51:27;;;;;;;;;;;;;;;;;;2218083;66;1128;-70
2022/09/30 14:54:05;;;;;;;;;;;;;;;;;;2219016;58;2094;-70
2022/09/30 14:56:38;;;;;;;;;;;;;;;;;;2218087;58;2102;-71
2022/09/30 14:59:17;;;;;;;;;;;;;;;;;;2220136;58;2258;-70
2022/09/30 15:01:54;;;;;;;;;;;;;;;;;;2217440;58;1648;-71
2022/09/30 15:04:30;;;;;;;;;;;;;;;;;;2217134;58;2383;-70
2022/09/30 15:07:06;;;;;;;;;;;;;;;;;;2217460;58;1136;-70
2022/09/30 15:09:43;;;;;;;;;;;;;;;;;;2218611;66;1124;-70
2022/09/30 15:12:17;;;;;;;;;;;;;;;;;;2215356;58;2004;-70
2022/09/30 15:14:51;;;;;;;;;;;;;;;;;;2217916;58;2108;-70
2022/09/30 15:17:26;;;;;;;;;;;;;;;;;;2218848;58;2504;-70
2022/09/30 15:20:00;;;;;;;;;;;;;;;;;;2219825;58;2198;-70
2022/09/30 15:22:34;;;;;;;;;;;;;;;;;;2212802;58;1587;-70
2022/09/30 15:25:13;;;;;;;;;;;;;;;;;;2216268;58;1786;-70
2022/09/30 15:27:48;;;;;;;;;;;;;;;;;;2219268;58;2321;-70
2022/09/30 15:30:27;;;;;;;;;;;;;;;;;;2220530;58;2119;-70
2022/09/30 15:33:03;;;;;;;;;;;;;;;;;;2220072;58;2374;-70
2022/09/30 15:35:42;;;;;;;;;;;;;;;;;;2218121;58;1754;-70
2022/09/30 15:38:19;;;;;;;;;;;;;;;;;;2222635;58;2938;-70
2022/09/30 15:40:58;;;;;;;;;;;;;;;;;;2219473;58;1171;-70
2022/09/30 15:43:36;;;;;;;;;;;;;;;;;;2216210;58;2384;-70
2022/09/30 15:46:30;;;;;;;;;;;;;;;;;;2220307;58;2281;-70
2022/09/30 15:49:08;;;;;;;;;;;;;;;;;;2220349;58;2240;-70
2022/09/30 15:51:42;;;;;;;;;;;;;;;;;;2221252;58;2146;-70
2022/09/30 15:54:36;;;;;;;;;;;;;;;;;;2216188;58;2290;-70
2022/09/30 15:57:38;;;;;;;;;;;;;;;;;;2220476;58;2458;-70
2022/09/30 16:00:34;;;;;;;;;;;;;;;;;;2221651;58;2325;-70
2022/09/30 16:03:22;;;;;;;;;;;;;;;;;;2221812;58;2287;-70
2022/09/30 16:06:06;;;;;;;;;;;;;;;;;;2218369;58;2525;-70
2022/09/30 16:08:43;;;;;;;;;;;;;;;;;;2222225;58;2147;-71
2022/09/30 16:11:21;;;;;;;;;;;;;;;;;;2222643;58;2380;-70
2022/09/30 16:13:56;;;;;;;;;;;;;;;;;;2223151;58;2236;-70
2022/09/30 16:16:33;;;;;;;;;;;;;;;;;;2222112;58;2329;-71
2022/09/30 16:19:07;;;;;;;;;;;;;;;;;;2218094;58;2286;-71
2022/09/30 16:21:49;;;;;;;;;;;;;;;;;;2221630;58;2294;-71
2022/09/30 16:24:41;;;;;;;;;;;;;;;;;;2216039;58;1835;-71
2022/09/30 16:27:32;;;;;;;;;;;;;;;;;;2222430;58;2185;-70
2022/09/30 16:30:06;;;;;;;;;;;;;;;;;;2223251;58;2264;-70
2022/09/30 16:32:44;;;;;;;;;;;;;;;;;;2221323;58;2264;-70
2022/09/30 16:35:21;;;;;;;;;;;;;;;;;;2221528;58;2231;-70
2022/09/30 16:37:59;;;;;;;;;;;;;;;;;;2219993;58;1214;-70
2022/09/30 16:40:38;;;;;;;;;;;;;;;;;;2220327;58;2361;-70
2022/09/30 16:43:11;;;;;;;;;;;;;;;;;;2220421;58;2042;-70
2022/09/30 16:45:44;;;;;;;;;;;;;;;;;;2219704;58;2231;-70
2022/09/30 16:48:21;;;;;;;;;;;;;;;;;;2221518;58;1366;-71
2022/09/30 16:50:56;;;;;;;;;;;;;;;;;;2223546;58;2227;-71
2022/09/30 16:53:29;;;;;;;;;;;;;;;;;;2220109;66;1910;-71
2022/09/30 16:56:02;;;;;;;;;;;;;;;;;;2220462;58;2262;-70
2022/09/30 16:58:36;;;;;;;;;;;;;;;;;;2221269;58;2500;-70
2022/09/30 17:01:14;;;;;;;;;;;;;;;;;;2217930;58;2340;-71
2022/09/30 17:03:50;;;;;;;;;;;;;;;;;;2219167;58;1939;-70
2022/09/30 17:06:28;;;;;;;;;;;;;;;;;;2220295;58;2589;-70
2022/09/30 17:09:02;;;;;;;;;;;;;;;;;;2221040;58;1364;-70
2022/09/30 17:11:37;;;;;;;;;;;;;;;;;;2222357;58;2359;-70
2022/09/30 17:14:10;;;;;;;;;;;;;;;;;;2222741;58;1989;-70
2022/09/30 17:16:45;;;;;;;;;;;;;;;;;;2220080;58;2535;-70
2022/09/30 17:19:24;;;;;;;;;;;;;;;;;;2221808;58;2170;-70
2022/09/30 17:21:58;;;;;;;;;;;;;;;;;;2219155;58;1191;-70
2022/09/30 17:24:31;;;;;;;;;;;;;;;;;;2219173;58;2169;-70
2022/09/30 17:27:05;;;;;;;;;;;;;;;;;;2219041;58;2215;-70
2022/09/30 17:29:38;;;;;;;;;;;;;;;;;;2218072;58;1557;-70
2022/09/30 17:32:11;;;;;;;;;;;;;;;;;;2218207;58;2148;-70
2022/09/30 17:34:47;;;;;;;;;;;;;;;;;;2217807;58;2219;-70
2022/09/30 17:37:21;;;;;;;;;;;;;;;;;;2219410;58;2365;-70
2022/09/30 17:39:54;;;;;;;;;;;;;;;;;;2219390;58;2332;-72
2022/09/30 17:45:16;;;;;;;;;;;;;;;;;;2219604;58;2190;-72
2022/09/30 17:47:49;;;;;;;;;;;;;;;;;;2218605;58;2290;-71
2022/09/30 17:50:26;;;;;;;;;;;;;;;;;;2216260;58;1828;-71
2022/09/30 17:53:01;;;;;;;;;;;;;;;;;;2217150;66;1993;-70
2022/09/30 17:55:35;;;;;;;;;;;;;;;;;;2217608;58;1725;-70
2022/09/30 17:58:10;;;;;;;;;;;;;;;;;;2218072;59;1133;-71
2022/09/30 18:00:43;;;;;;;;;;;;;;;;;;2219381;58;1688;-70
2022/09/30 18:03:17;;;;;;;;;;;;;;;;;;2213679;66;2200;-70
2022/09/30 18:05:58;;;;;;;;;;;;;;;;;;2216941;66;1594;-70
2022/09/30 18:08:31;;;;;;;;;;;;;;;;;;2209603;58;2350;-70
2022/09/30 18:11:04;;;;;;;;;;;;;;;;;;2216659;58;2451;-70
2022/09/30 18:13:37;;;;;;;;;;;;;;;;;;2217212;58;2109;-70
2022/09/30 18:16:11;;;;;;;;;;;;;;;;;;2216911;58;2923;-70
2022/09/30 18:18:44;;;;;;;;;;;;;;;;;;2215673;58;2361;-70
2022/09/30 18:21:20;;;;;;;;;;;;;;;;;;2217361;58;1781;-70